sensor_id;sensor_type;location;lat;lon;timestamp;P1;durP1;ratioP1;P2;durP2;ratioP2
5622;SDS011;2833;50.432;10.706;2023-03-03T00:00:07;47.67;;;22.33;;
5622;SDS011;2833;50.432;10.706;2023-03-03T00:02:33;53.37;;;25.10;;
5622;SDS011;2833;50.432;10.706;2023-03-03T00:04:58;47.50;;;21.53;;
5622;SDS011;2833;50.432;10.706;2023-03-03T00:07:23;52.30;;;23.50;;
5622;SDS011;2833;50.432;10.706;2023-03-03T00:09:48;51.47;;;23.10;;
5622;SDS011;2833;50.432;10.706;2023-03-03T00:12:20;48.47;;;21.70;;
5622;SDS011;2833;50.432;10.706;2023-03-03T00:14:47;42.20;;;20.13;;
5622;SDS011;2833;50.432;10.706;2023-03-03T00:17:23;49.70;;;20.77;;
5622;SDS011;2833;50.432;10.706;2023-03-03T00:19:48;50.43;;;22.57;;
5622;SDS011;2833;50.432;10.706;2023-03-03T00:22:15;53.03;;;23.60;;
5622;SDS011;2833;50.432;10.706;2023-03-03T00:24:44;53.40;;;23.53;;
5622;SDS011;2833;50.432;10.706;2023-03-03T00:27:30;47.37;;;22.33;;
5622;SDS011;2833;50.432;10.706;2023-03-03T00:29:58;54.20;;;21.97;;
5622;SDS011;2833;50.432;10.706;2023-03-03T00:34:50;56.03;;;23.27;;
5622;SDS011;2833;50.432;10.706;2023-03-03T00:37:21;52.00;;;22.33;;
5622;SDS011;2833;50.432;10.706;2023-03-03T00:39:47;63.00;;;24.93;;
5622;SDS011;2833;50.432;10.706;2023-03-03T00:42:13;50.17;;;22.03;;
5622;SDS011;2833;50.432;10.706;2023-03-03T00:44:39;41.50;;;19.53;;
5622;SDS011;2833;50.432;10.706;2023-03-03T00:49:50;51.63;;;23.67;;
5622;SDS011;2833;50.432;10.706;2023-03-03T00:52:16;42.47;;;21.60;;
5622;SDS011;2833;50.432;10.706;2023-03-03T00:54:42;52.10;;;22.13;;
5622;SDS011;2833;50.432;10.706;2023-03-03T00:57:07;45.57;;;21.00;;
5622;SDS011;2833;50.432;10.706;2023-03-03T00:59:33;52.13;;;22.77;;
5622;SDS011;2833;50.432;10.706;2023-03-03T01:01:58;46.47;;;21.00;;
5622;SDS011;2833;50.432;10.706;2023-03-03T01:04:23;48.23;;;21.80;;
5622;SDS011;2833;50.432;10.706;2023-03-03T01:06:48;44.10;;;19.63;;
5622;SDS011;2833;50.432;10.706;2023-03-03T01:09:13;42.97;;;19.43;;
5622;SDS011;2833;50.432;10.706;2023-03-03T01:11:38;43.83;;;21.53;;
5622;SDS011;2833;50.432;10.706;2023-03-03T01:14:04;40.73;;;20.93;;
5622;SDS011;2833;50.432;10.706;2023-03-03T01:16:29;44.17;;;21.17;;
5622;SDS011;2833;50.432;10.706;2023-03-03T01:18:54;58.37;;;25.40;;
5622;SDS011;2833;50.432;10.706;2023-03-03T01:21:19;47.20;;;21.43;;
5622;SDS011;2833;50.432;10.706;2023-03-03T01:23:45;62.13;;;27.23;;
5622;SDS011;2833;50.432;10.706;2023-03-03T01:26:10;54.67;;;23.77;;
5622;SDS011;2833;50.432;10.706;2023-03-03T01:28:35;56.07;;;24.43;;
5622;SDS011;2833;50.432;10.706;2023-03-03T01:31:01;46.37;;;22.13;;
5622;SDS011;2833;50.432;10.706;2023-03-03T01:33:26;46.30;;;20.13;;
5622;SDS011;2833;50.432;10.706;2023-03-03T01:35:51;50.10;;;21.53;;
5622;SDS011;2833;50.432;10.706;2023-03-03T01:38:17;41.70;;;20.27;;
5622;SDS011;2833;50.432;10.706;2023-03-03T01:40:42;47.23;;;20.33;;
5622;SDS011;2833;50.432;10.706;2023-03-03T01:43:07;47.07;;;19.90;;
5622;SDS011;2833;50.432;10.706;2023-03-03T01:48:14;41.13;;;18.40;;
5622;SDS011;2833;50.432;10.706;2023-03-03T01:50:54;43.83;;;19.80;;
5622;SDS011;2833;50.432;10.706;2023-03-03T01:53:28;44.50;;;19.43;;
5622;SDS011;2833;50.432;10.706;2023-03-03T01:55:54;46.77;;;21.77;;
5622;SDS011;2833;50.432;10.706;2023-03-03T01:58:20;48.73;;;22.10;;
5622;SDS011;2833;50.432;10.706;2023-03-03T02:00:48;53.57;;;27.83;;
5622;SDS011;2833;50.432;10.706;2023-03-03T02:03:14;44.60;;;21.30;;
5622;SDS011;2833;50.432;10.706;2023-03-03T02:05:40;41.63;;;19.53;;
5622;SDS011;2833;50.432;10.706;2023-03-03T02:08:05;39.63;;;19.57;;
5622;SDS011;2833;50.432;10.706;2023-03-03T02:10:31;41.20;;;18.67;;
5622;SDS011;2833;50.432;10.706;2023-03-03T02:12:57;41.83;;;19.20;;
5622;SDS011;2833;50.432;10.706;2023-03-03T02:17:49;42.77;;;20.23;;
5622;SDS011;2833;50.432;10.706;2023-03-03T02:22:52;34.17;;;18.10;;
5622;SDS011;2833;50.432;10.706;2023-03-03T02:25:21;41.70;;;19.67;;
5622;SDS011;2833;50.432;10.706;2023-03-03T02:27:51;37.47;;;19.03;;
5622;SDS011;2833;50.432;10.706;2023-03-03T02:30:18;35.50;;;18.00;;
5622;SDS011;2833;50.432;10.706;2023-03-03T02:32:43;44.87;;;20.80;;
5622;SDS011;2833;50.432;10.706;2023-03-03T02:35:24;42.60;;;18.77;;
5622;SDS011;2833;50.432;10.706;2023-03-03T02:37:51;39.50;;;17.97;;
5622;SDS011;2833;50.432;10.706;2023-03-03T02:40:17;36.47;;;18.20;;
5622;SDS011;2833;50.432;10.706;2023-03-03T02:42:44;36.87;;;18.70;;
5622;SDS011;2833;50.432;10.706;2023-03-03T02:45:10;39.10;;;18.50;;
5622;SDS011;2833;50.432;10.706;2023-03-03T02:47:35;36.70;;;18.70;;
5622;SDS011;2833;50.432;10.706;2023-03-03T02:50:01;39.37;;;18.07;;
5622;SDS011;2833;50.432;10.706;2023-03-03T02:52:26;44.83;;;19.30;;
5622;SDS011;2833;50.432;10.706;2023-03-03T02:54:51;39.20;;;18.10;;
5622;SDS011;2833;50.432;10.706;2023-03-03T02:57:16;41.03;;;17.63;;
5622;SDS011;2833;50.432;10.706;2023-03-03T02:59:41;36.40;;;17.90;;
5622;SDS011;2833;50.432;10.706;2023-03-03T03:02:07;39.20;;;17.53;;
5622;SDS011;2833;50.432;10.706;2023-03-03T03:04:32;36.60;;;17.80;;
5622;SDS011;2833;50.432;10.706;2023-03-03T03:06:58;39.17;;;17.90;;
5622;SDS011;2833;50.432;10.706;2023-03-03T03:09:24;35.43;;;18.10;;
5622;SDS011;2833;50.432;10.706;2023-03-03T03:11:50;37.60;;;18.20;;
5622;SDS011;2833;50.432;10.706;2023-03-03T03:14:15;35.80;;;17.57;;
5622;SDS011;2833;50.432;10.706;2023-03-03T03:16:40;36.47;;;17.67;;
5622;SDS011;2833;50.432;10.706;2023-03-03T03:19:05;35.93;;;17.67;;
5622;SDS011;2833;50.432;10.706;2023-03-03T03:21:31;37.83;;;17.40;;
5622;SDS011;2833;50.432;10.706;2023-03-03T03:23:56;36.00;;;17.60;;
5622;SDS011;2833;50.432;10.706;2023-03-03T03:26:22;36.90;;;17.70;;
5622;SDS011;2833;50.432;10.706;2023-03-03T03:28:47;44.07;;;19.53;;
5622;SDS011;2833;50.432;10.706;2023-03-03T03:31:13;36.00;;;17.33;;
5622;SDS011;2833;50.432;10.706;2023-03-03T03:33:38;38.30;;;17.10;;
5622;SDS011;2833;50.432;10.706;2023-03-03T03:36:04;35.60;;;16.00;;
5622;SDS011;2833;50.432;10.706;2023-03-03T03:38:31;33.50;;;17.60;;
5622;SDS011;2833;50.432;10.706;2023-03-03T03:40:56;32.30;;;16.57;;
5622;SDS011;2833;50.432;10.706;2023-03-03T03:43:21;38.87;;;18.27;;
5622;SDS011;2833;50.432;10.706;2023-03-03T03:45:46;36.27;;;17.90;;
5622;SDS011;2833;50.432;10.706;2023-03-03T03:48:12;34.13;;;17.20;;
5622;SDS011;2833;50.432;10.706;2023-03-03T03:50:37;38.50;;;18.33;;
5622;SDS011;2833;50.432;10.706;2023-03-03T03:53:03;34.83;;;16.67;;
5622;SDS011;2833;50.432;10.706;2023-03-03T03:55:28;35.83;;;16.83;;
5622;SDS011;2833;50.432;10.706;2023-03-03T03:57:54;31.63;;;17.40;;
5622;SDS011;2833;50.432;10.706;2023-03-03T04:00:20;31.97;;;16.67;;
5622;SDS011;2833;50.432;10.706;2023-03-03T04:02:45;34.93;;;15.67;;
5622;SDS011;2833;50.432;10.706;2023-03-03T04:05:10;38.43;;;19.00;;
5622;SDS011;2833;50.432;10.706;2023-03-03T04:07:35;35.13;;;17.27;;
5622;SDS011;2833;50.432;10.706;2023-03-03T04:10:00;39.90;;;17.37;;
5622;SDS011;2833;50.432;10.706;2023-03-03T04:12:25;35.90;;;16.30;;
5622;SDS011;2833;50.432;10.706;2023-03-03T04:14:51;32.70;;;16.70;;
5622;SDS011;2833;50.432;10.706;2023-03-03T04:17:16;36.53;;;16.80;;
5622;SDS011;2833;50.432;10.706;2023-03-03T04:19:42;35.70;;;16.97;;
5622;SDS011;2833;50.432;10.706;2023-03-03T04:22:07;29.50;;;15.30;;
5622;SDS011;2833;50.432;10.706;2023-03-03T04:24:32;33.23;;;16.40;;
5622;SDS011;2833;50.432;10.706;2023-03-03T04:26:57;36.33;;;17.57;;
5622;SDS011;2833;50.432;10.706;2023-03-03T04:29:22;33.30;;;16.57;;
5622;SDS011;2833;50.432;10.706;2023-03-03T04:31:48;32.40;;;16.17;;
5622;SDS011;2833;50.432;10.706;2023-03-03T04:34:13;32.53;;;16.57;;
5622;SDS011;2833;50.432;10.706;2023-03-03T04:36:38;38.70;;;18.00;;
5622;SDS011;2833;50.432;10.706;2023-03-03T04:39:03;34.13;;;17.57;;
5622;SDS011;2833;50.432;10.706;2023-03-03T04:41:28;30.50;;;17.00;;
5622;SDS011;2833;50.432;10.706;2023-03-03T04:43:54;36.30;;;17.30;;
5622;SDS011;2833;50.432;10.706;2023-03-03T04:46:19;31.93;;;14.93;;
5622;SDS011;2833;50.432;10.706;2023-03-03T04:48:44;32.50;;;16.27;;
5622;SDS011;2833;50.432;10.706;2023-03-03T04:51:09;31.83;;;17.03;;
5622;SDS011;2833;50.432;10.706;2023-03-03T04:53:34;35.27;;;16.97;;
5622;SDS011;2833;50.432;10.706;2023-03-03T04:56:02;33.40;;;17.03;;
5622;SDS011;2833;50.432;10.706;2023-03-03T04:58:27;31.50;;;16.03;;
5622;SDS011;2833;50.432;10.706;2023-03-03T05:00:53;39.97;;;17.60;;
5622;SDS011;2833;50.432;10.706;2023-03-03T05:03:19;29.77;;;15.97;;
5622;SDS011;2833;50.432;10.706;2023-03-03T05:05:45;33.87;;;16.93;;
5622;SDS011;2833;50.432;10.706;2023-03-03T05:08:10;34.33;;;18.13;;
5622;SDS011;2833;50.432;10.706;2023-03-03T05:10:35;35.70;;;16.40;;
5622;SDS011;2833;50.432;10.706;2023-03-03T05:13:01;30.53;;;15.40;;
5622;SDS011;2833;50.432;10.706;2023-03-03T05:15:26;33.23;;;14.73;;
5622;SDS011;2833;50.432;10.706;2023-03-03T05:17:51;32.03;;;16.20;;
5622;SDS011;2833;50.432;10.706;2023-03-03T05:20:17;30.87;;;11.13;;
5622;SDS011;2833;50.432;10.706;2023-03-03T05:22:42;31.73;;;12.27;;
5622;SDS011;2833;50.432;10.706;2023-03-03T05:25:07;29.57;;;14.80;;
5622;SDS011;2833;50.432;10.706;2023-03-03T05:27:35;28.80;;;13.87;;
5622;SDS011;2833;50.432;10.706;2023-03-03T05:30:00;28.20;;;12.70;;
5622;SDS011;2833;50.432;10.706;2023-03-03T05:32:25;30.30;;;13.13;;
5622;SDS011;2833;50.432;10.706;2023-03-03T05:34:50;28.10;;;13.57;;
5622;SDS011;2833;50.432;10.706;2023-03-03T05:37:16;30.23;;;11.07;;
5622;SDS011;2833;50.432;10.706;2023-03-03T05:39:41;28.77;;;10.40;;
5622;SDS011;2833;50.432;10.706;2023-03-03T05:42:08;30.50;;;12.30;;
5622;SDS011;2833;50.432;10.706;2023-03-03T05:44:35;28.50;;;11.73;;
5622;SDS011;2833;50.432;10.706;2023-03-03T05:47:00;22.30;;;10.40;;
5622;SDS011;2833;50.432;10.706;2023-03-03T05:49:25;26.93;;;12.43;;
5622;SDS011;2833;50.432;10.706;2023-03-03T05:51:51;28.43;;;12.00;;
5622;SDS011;2833;50.432;10.706;2023-03-03T05:54:16;25.70;;;11.13;;
5622;SDS011;2833;50.432;10.706;2023-03-03T05:56:41;21.17;;;10.43;;
5622;SDS011;2833;50.432;10.706;2023-03-03T05:59:06;24.73;;;10.90;;
5622;SDS011;2833;50.432;10.706;2023-03-03T06:01:31;29.30;;;10.40;;
5622;SDS011;2833;50.432;10.706;2023-03-03T06:03:57;28.00;;;11.47;;
5622;SDS011;2833;50.432;10.706;2023-03-03T06:06:22;27.30;;;11.10;;
5622;SDS011;2833;50.432;10.706;2023-03-03T06:08:47;33.30;;;13.13;;
5622;SDS011;2833;50.432;10.706;2023-03-03T06:11:12;28.90;;;11.93;;
5622;SDS011;2833;50.432;10.706;2023-03-03T06:13:40;24.40;;;10.67;;
5622;SDS011;2833;50.432;10.706;2023-03-03T06:16:06;27.50;;;10.43;;
5622;SDS011;2833;50.432;10.706;2023-03-03T06:18:32;32.97;;;14.13;;
5622;SDS011;2833;50.432;10.706;2023-03-03T06:20:57;34.77;;;14.10;;
5622;SDS011;2833;50.432;10.706;2023-03-03T06:23:22;28.50;;;9.77;;
5622;SDS011;2833;50.432;10.706;2023-03-03T06:25:47;31.67;;;11.43;;
5622;SDS011;2833;50.432;10.706;2023-03-03T06:28:13;26.07;;;11.60;;
5622;SDS011;2833;50.432;10.706;2023-03-03T06:30:38;24.07;;;11.37;;
5622;SDS011;2833;50.432;10.706;2023-03-03T06:33:03;23.13;;;9.97;;
5622;SDS011;2833;50.432;10.706;2023-03-03T06:35:29;19.93;;;9.40;;
5622;SDS011;2833;50.432;10.706;2023-03-03T06:37:54;23.73;;;9.80;;
5622;SDS011;2833;50.432;10.706;2023-03-03T06:40:19;6.43;;;3.63;;
5622;SDS011;2833;50.432;10.706;2023-03-03T06:42:44;16.37;;;7.57;;
5622;SDS011;2833;50.432;10.706;2023-03-03T06:45:10;24.53;;;10.70;;
5622;SDS011;2833;50.432;10.706;2023-03-03T06:47:35;16.63;;;6.27;;
5622;SDS011;2833;50.432;10.706;2023-03-03T06:50:00;23.10;;;11.17;;
5622;SDS011;2833;50.432;10.706;2023-03-03T06:52:26;18.97;;;8.00;;
5622;SDS011;2833;50.432;10.706;2023-03-03T06:54:55;24.30;;;10.67;;
5622;SDS011;2833;50.432;10.706;2023-03-03T06:59:47;26.53;;;10.67;;
5622;SDS011;2833;50.432;10.706;2023-03-03T07:02:15;21.63;;;8.77;;
5622;SDS011;2833;50.432;10.706;2023-03-03T07:04:41;21.33;;;9.70;;
5622;SDS011;2833;50.432;10.706;2023-03-03T07:07:39;22.63;;;11.07;;
5622;SDS011;2833;50.432;10.706;2023-03-03T07:09:57;22.03;;;9.80;;
5622;SDS011;2833;50.432;10.706;2023-03-03T07:12:25;27.37;;;13.03;;
5622;SDS011;2833;50.432;10.706;2023-03-03T07:14:52;29.07;;;14.40;;
5622;SDS011;2833;50.432;10.706;2023-03-03T07:17:20;25.07;;;13.73;;
5622;SDS011;2833;50.432;10.706;2023-03-03T07:19:46;25.10;;;12.73;;
5622;SDS011;2833;50.432;10.706;2023-03-03T07:22:18;31.57;;;14.00;;
5622;SDS011;2833;50.432;10.706;2023-03-03T07:24:45;28.23;;;14.17;;
5622;SDS011;2833;50.432;10.706;2023-03-03T07:27:12;25.77;;;13.67;;
5622;SDS011;2833;50.432;10.706;2023-03-03T07:29:39;29.70;;;13.10;;
5622;SDS011;2833;50.432;10.706;2023-03-03T07:34:51;25.77;;;12.80;;
5622;SDS011;2833;50.432;10.706;2023-03-03T07:37:19;29.60;;;13.77;;
5622;SDS011;2833;50.432;10.706;2023-03-03T07:39:46;29.60;;;13.83;;
5622;SDS011;2833;50.432;10.706;2023-03-03T07:42:14;26.10;;;13.40;;
5622;SDS011;2833;50.432;10.706;2023-03-03T07:44:41;33.60;;;14.10;;
5622;SDS011;2833;50.432;10.706;2023-03-03T07:47:21;22.77;;;11.80;;
5622;SDS011;2833;50.432;10.706;2023-03-03T07:49:47;23.50;;;11.97;;
5622;SDS011;2833;50.432;10.706;2023-03-03T07:52:24;26.43;;;12.90;;
5622;SDS011;2833;50.432;10.706;2023-03-03T07:54:50;29.20;;;13.90;;
5622;SDS011;2833;50.432;10.706;2023-03-03T07:59:44;25.90;;;13.53;;
5622;SDS011;2833;50.432;10.706;2023-03-03T08:02:53;25.97;;;12.07;;
5622;SDS011;2833;50.432;10.706;2023-03-03T08:04:58;27.23;;;12.90;;
5622;SDS011;2833;50.432;10.706;2023-03-03T08:07:24;19.13;;;10.90;;
5622;SDS011;2833;50.432;10.706;2023-03-03T08:09:50;20.23;;;9.47;;
5622;SDS011;2833;50.432;10.706;2023-03-03T08:12:23;16.80;;;8.70;;
5622;SDS011;2833;50.432;10.706;2023-03-03T08:14:52;21.63;;;9.73;;
5622;SDS011;2833;50.432;10.706;2023-03-03T08:17:21;19.63;;;10.63;;
5622;SDS011;2833;50.432;10.706;2023-03-03T08:19:48;19.50;;;9.97;;
5622;SDS011;2833;50.432;10.706;2023-03-03T08:22:15;20.10;;;9.80;;
5622;SDS011;2833;50.432;10.706;2023-03-03T08:24:41;16.67;;;10.17;;
5622;SDS011;2833;50.432;10.706;2023-03-03T08:27:06;20.33;;;10.10;;
5622;SDS011;2833;50.432;10.706;2023-03-03T08:29:31;18.00;;;9.90;;
5622;SDS011;2833;50.432;10.706;2023-03-03T08:31:56;23.87;;;11.70;;
5622;SDS011;2833;50.432;10.706;2023-03-03T08:34:22;19.33;;;9.33;;
5622;SDS011;2833;50.432;10.706;2023-03-03T08:36:47;20.30;;;9.43;;
5622;SDS011;2833;50.432;10.706;2023-03-03T08:39:13;18.57;;;9.33;;
5622;SDS011;2833;50.432;10.706;2023-03-03T08:41:39;18.27;;;9.10;;
5622;SDS011;2833;50.432;10.706;2023-03-03T08:44:07;25.47;;;9.77;;
5622;SDS011;2833;50.432;10.706;2023-03-03T08:46:32;18.30;;;9.10;;
5622;SDS011;2833;50.432;10.706;2023-03-03T08:48:58;17.63;;;9.43;;
5622;SDS011;2833;50.432;10.706;2023-03-03T08:51:23;15.80;;;6.90;;
5622;SDS011;2833;50.432;10.706;2023-03-03T08:53:50;14.43;;;8.13;;
5622;SDS011;2833;50.432;10.706;2023-03-03T08:56:15;16.23;;;8.90;;
5622;SDS011;2833;50.432;10.706;2023-03-03T08:58:40;35.40;;;17.80;;
5622;SDS011;2833;50.432;10.706;2023-03-03T09:01:11;24.00;;;11.57;;
5622;SDS011;2833;50.432;10.706;2023-03-03T09:03:37;19.53;;;8.87;;
5622;SDS011;2833;50.432;10.706;2023-03-03T09:06:02;18.63;;;9.60;;
5622;SDS011;2833;50.432;10.706;2023-03-03T09:08:28;11.87;;;5.37;;
5622;SDS011;2833;50.432;10.706;2023-03-03T09:10:53;20.43;;;10.60;;
5622;SDS011;2833;50.432;10.706;2023-03-03T09:13:18;19.93;;;8.87;;
5622;SDS011;2833;50.432;10.706;2023-03-03T09:15:43;18.53;;;9.47;;
5622;SDS011;2833;50.432;10.706;2023-03-03T09:18:19;14.57;;;8.00;;
5622;SDS011;2833;50.432;10.706;2023-03-03T09:20:48;16.77;;;9.27;;
5622;SDS011;2833;50.432;10.706;2023-03-03T09:25:48;17.10;;;8.83;;
5622;SDS011;2833;50.432;10.706;2023-03-03T09:28:23;20.37;;;9.60;;
5622;SDS011;2833;50.432;10.706;2023-03-03T09:30:51;14.63;;;6.67;;
5622;SDS011;2833;50.432;10.706;2023-03-03T09:34:02;27.10;;;11.30;;
5622;SDS011;2833;50.432;10.706;2023-03-03T09:36:10;13.70;;;7.30;;
5622;SDS011;2833;50.432;10.706;2023-03-03T09:38:36;9.70;;;6.00;;
5622;SDS011;2833;50.432;10.706;2023-03-03T09:41:14;13.17;;;7.83;;
5622;SDS011;2833;50.432;10.706;2023-03-03T09:46:44;8.13;;;3.73;;
5622;SDS011;2833;50.432;10.706;2023-03-03T09:49:34;13.20;;;8.27;;
5622;SDS011;2833;50.432;10.706;2023-03-03T09:57:13;8.90;;;5.53;;
5622;SDS011;2833;50.432;10.706;2023-03-03T09:59:47;15.23;;;6.83;;
5622;SDS011;2833;50.432;10.706;2023-03-03T10:07:10;35.47;;;13.67;;
5622;SDS011;2833;50.432;10.706;2023-03-03T10:09:45;11.47;;;5.80;;
5622;SDS011;2833;50.432;10.706;2023-03-03T10:12:26;43.90;;;14.90;;
5622;SDS011;2833;50.432;10.706;2023-03-03T10:17:20;41.83;;;12.00;;
5622;SDS011;2833;50.432;10.706;2023-03-03T10:27:38;15.53;;;7.27;;
5622;SDS011;2833;50.432;10.706;2023-03-03T10:30:12;9.97;;;4.77;;
5622;SDS011;2833;50.432;10.706;2023-03-03T10:35:32;7.90;;;4.70;;
5622;SDS011;2833;50.432;10.706;2023-03-03T10:40:33;11.07;;;5.10;;
5622;SDS011;2833;50.432;10.706;2023-03-03T10:53:39;15.17;;;6.70;;
5622;SDS011;2833;50.432;10.706;2023-03-03T11:00:50;6.67;;;3.80;;
5622;SDS011;2833;50.432;10.706;2023-03-03T11:03:37;7.07;;;4.60;;
5622;SDS011;2833;50.432;10.706;2023-03-03T11:06:18;10.27;;;4.10;;
5622;SDS011;2833;50.432;10.706;2023-03-03T11:08:48;5.00;;;3.20;;
5622;SDS011;2833;50.432;10.706;2023-03-03T11:36:29;12.23;;;5.10;;
5622;SDS011;2833;50.432;10.706;2023-03-03T11:43:46;13.30;;;6.60;;
5622;SDS011;2833;50.432;10.706;2023-03-03T11:46:13;8.17;;;5.00;;
5622;SDS011;2833;50.432;10.706;2023-03-03T11:51:31;23.57;;;12.43;;
5622;SDS011;2833;50.432;10.706;2023-03-03T11:54:00;10.10;;;5.67;;
5622;SDS011;2833;50.432;10.706;2023-03-03T11:56:43;12.13;;;6.67;;
5622;SDS011;2833;50.432;10.706;2023-03-03T12:04:44;12.90;;;7.33;;
5622;SDS011;2833;50.432;10.706;2023-03-03T12:07:24;11.20;;;5.83;;
5622;SDS011;2833;50.432;10.706;2023-03-03T12:12:20;7.60;;;4.23;;
5622;SDS011;2833;50.432;10.706;2023-03-03T12:15:02;8.57;;;4.40;;
5622;SDS011;2833;50.432;10.706;2023-03-03T12:22:34;12.77;;;7.07;;
5622;SDS011;2833;50.432;10.706;2023-03-03T12:25:08;10.23;;;5.67;;
5622;SDS011;2833;50.432;10.706;2023-03-03T12:27:43;9.17;;;5.37;;
5622;SDS011;2833;50.432;10.706;2023-03-03T12:30:15;9.10;;;4.50;;
5622;SDS011;2833;50.432;10.706;2023-03-03T12:38:05;5.30;;;3.93;;
5622;SDS011;2833;50.432;10.706;2023-03-03T12:40:35;29.53;;;11.73;;
5622;SDS011;2833;50.432;10.706;2023-03-03T12:43:18;27.87;;;9.93;;
5622;SDS011;2833;50.432;10.706;2023-03-03T12:45:56;8.73;;;5.23;;
5622;SDS011;2833;50.432;10.706;2023-03-03T12:48:39;8.40;;;3.60;;
5622;SDS011;2833;50.432;10.706;2023-03-03T12:51:09;4.30;;;3.20;;
5622;SDS011;2833;50.432;10.706;2023-03-03T12:56:34;41.73;;;13.57;;
5622;SDS011;2833;50.432;10.706;2023-03-03T13:01:51;6.30;;;3.33;;
5622;SDS011;2833;50.432;10.706;2023-03-03T13:04:28;22.20;;;9.53;;
5622;SDS011;2833;50.432;10.706;2023-03-03T13:07:03;13.60;;;7.93;;
5622;SDS011;2833;50.432;10.706;2023-03-03T13:12:10;21.60;;;10.60;;
5622;SDS011;2833;50.432;10.706;2023-03-03T13:14:42;9.60;;;4.40;;
5622;SDS011;2833;50.432;10.706;2023-03-03T13:25:02;7.17;;;4.00;;
5622;SDS011;2833;50.432;10.706;2023-03-03T13:27:35;5.80;;;3.57;;
5622;SDS011;2833;50.432;10.706;2023-03-03T13:30:21;11.00;;;7.93;;
5622;SDS011;2833;50.432;10.706;2023-03-03T13:33:00;3.90;;;3.03;;
5622;SDS011;2833;50.432;10.706;2023-03-03T13:35:32;10.40;;;6.70;;
5622;SDS011;2833;50.432;10.706;2023-03-03T13:38:02;4.37;;;2.93;;
5622;SDS011;2833;50.432;10.706;2023-03-03T13:40:35;6.57;;;3.63;;
5622;SDS011;2833;50.432;10.706;2023-03-03T13:43:11;12.40;;;3.43;;
5622;SDS011;2833;50.432;10.706;2023-03-03T13:45:45;10.80;;;5.97;;
5622;SDS011;2833;50.432;10.706;2023-03-03T13:48:27;19.87;;;11.20;;
5622;SDS011;2833;50.432;10.706;2023-03-03T13:50:55;8.73;;;4.90;;
5622;SDS011;2833;50.432;10.706;2023-03-03T13:53:33;9.70;;;4.40;;
5622;SDS011;2833;50.432;10.706;2023-03-03T13:56:06;4.80;;;2.93;;
5622;SDS011;2833;50.432;10.706;2023-03-03T14:03:50;10.50;;;3.90;;
5622;SDS011;2833;50.432;10.706;2023-03-03T14:06:27;20.60;;;7.37;;
5622;SDS011;2833;50.432;10.706;2023-03-03T14:11:36;6.23;;;3.10;;
5622;SDS011;2833;50.432;10.706;2023-03-03T14:14:12;6.37;;;2.90;;
5622;SDS011;2833;50.432;10.706;2023-03-03T14:19:20;3.63;;;2.80;;
5622;SDS011;2833;50.432;10.706;2023-03-03T14:22:05;15.47;;;6.53;;
5622;SDS011;2833;50.432;10.706;2023-03-03T14:27:22;6.47;;;3.83;;
5622;SDS011;2833;50.432;10.706;2023-03-03T14:29:48;15.57;;;7.20;;
5622;SDS011;2833;50.432;10.706;2023-03-03T14:32:20;20.93;;;8.93;;
5622;SDS011;2833;50.432;10.706;2023-03-03T14:34:47;16.33;;;5.50;;
5622;SDS011;2833;50.432;10.706;2023-03-03T14:42:35;10.50;;;6.07;;
5622;SDS011;2833;50.432;10.706;2023-03-03T14:45:14;16.80;;;7.63;;
5622;SDS011;2833;50.432;10.706;2023-03-03T14:47:42;6.80;;;4.00;;
5622;SDS011;2833;50.432;10.706;2023-03-03T14:50:27;8.67;;;4.63;;
5622;SDS011;2833;50.432;10.706;2023-03-03T14:53:02;16.20;;;7.37;;
5622;SDS011;2833;50.432;10.706;2023-03-03T14:55:32;11.03;;;6.10;;
5622;SDS011;2833;50.432;10.706;2023-03-03T14:57:59;10.23;;;5.73;;
5622;SDS011;2833;50.432;10.706;2023-03-03T15:00:27;15.27;;;8.30;;
5622;SDS011;2833;50.432;10.706;2023-03-03T15:05:25;4.70;;;3.33;;
5622;SDS011;2833;50.432;10.706;2023-03-03T15:07:57;8.27;;;4.50;;
5622;SDS011;2833;50.432;10.706;2023-03-03T15:12:58;6.13;;;4.07;;
5622;SDS011;2833;50.432;10.706;2023-03-03T15:15:32;11.23;;;3.73;;
5622;SDS011;2833;50.432;10.706;2023-03-03T15:17:58;9.93;;;5.30;;
5622;SDS011;2833;50.432;10.706;2023-03-03T15:25:35;10.30;;;2.93;;
5622;SDS011;2833;50.432;10.706;2023-03-03T15:30:48;9.13;;;5.73;;
5622;SDS011;2833;50.432;10.706;2023-03-03T15:35:50;8.17;;;4.57;;
5622;SDS011;2833;50.432;10.706;2023-03-03T15:38:19;5.10;;;3.47;;
5622;SDS011;2833;50.432;10.706;2023-03-03T15:40:48;23.77;;;9.07;;
5622;SDS011;2833;50.432;10.706;2023-03-03T15:43:29;9.80;;;6.20;;
5622;SDS011;2833;50.432;10.706;2023-03-03T15:48:47;25.83;;;12.57;;
5622;SDS011;2833;50.432;10.706;2023-03-03T15:51:20;5.57;;;3.60;;
5622;SDS011;2833;50.432;10.706;2023-03-03T15:59:08;8.57;;;5.10;;
5622;SDS011;2833;50.432;10.706;2023-03-03T16:01:45;16.73;;;9.00;;
5622;SDS011;2833;50.432;10.706;2023-03-03T16:04:15;9.40;;;5.50;;
5622;SDS011;2833;50.432;10.706;2023-03-03T16:06:52;19.10;;;8.50;;
5622;SDS011;2833;50.432;10.706;2023-03-03T16:09:30;7.67;;;4.73;;
5622;SDS011;2833;50.432;10.706;2023-03-03T16:12:02;7.30;;;4.80;;
5622;SDS011;2833;50.432;10.706;2023-03-03T16:19:48;19.30;;;8.43;;
5622;SDS011;2833;50.432;10.706;2023-03-03T16:22:35;48.00;;;21.27;;
5622;SDS011;2833;50.432;10.706;2023-03-03T16:30:32;17.20;;;10.70;;
5622;SDS011;2833;50.432;10.706;2023-03-03T16:33:10;15.67;;;9.40;;
5622;SDS011;2833;50.432;10.706;2023-03-03T16:35:41;11.40;;;6.90;;
5622;SDS011;2833;50.432;10.706;2023-03-03T16:38:11;7.77;;;3.63;;
5622;SDS011;2833;50.432;10.706;2023-03-03T16:40:42;8.13;;;4.83;;
5622;SDS011;2833;50.432;10.706;2023-03-03T16:43:22;9.67;;;5.60;;
5622;SDS011;2833;50.432;10.706;2023-03-03T16:45:53;9.63;;;6.13;;
5622;SDS011;2833;50.432;10.706;2023-03-03T16:58:19;9.33;;;6.50;;
5622;SDS011;2833;50.432;10.706;2023-03-03T17:01:00;8.60;;;6.27;;
5622;SDS011;2833;50.432;10.706;2023-03-03T17:03:38;18.23;;;8.40;;
5622;SDS011;2833;50.432;10.706;2023-03-03T17:11:54;10.20;;;4.97;;
5622;SDS011;2833;50.432;10.706;2023-03-03T17:14:30;6.10;;;4.10;;
5622;SDS011;2833;50.432;10.706;2023-03-03T17:17:02;11.93;;;6.33;;
5622;SDS011;2833;50.432;10.706;2023-03-03T17:19:36;11.17;;;5.13;;
5622;SDS011;2833;50.432;10.706;2023-03-03T17:24:40;7.17;;;4.43;;
5622;SDS011;2833;50.432;10.706;2023-03-03T17:27:33;21.70;;;9.57;;
5622;SDS011;2833;50.432;10.706;2023-03-03T17:32:51;4.00;;;3.17;;
5622;SDS011;2833;50.432;10.706;2023-03-03T17:43:05;10.07;;;5.60;;
5622;SDS011;2833;50.432;10.706;2023-03-03T17:45:33;7.40;;;4.43;;
5622;SDS011;2833;50.432;10.706;2023-03-03T17:56:00;54.10;;;20.43;;
5622;SDS011;2833;50.432;10.706;2023-03-03T18:16:24;23.13;;;12.93;;
5622;SDS011;2833;50.432;10.706;2023-03-03T18:18:59;22.40;;;11.40;;
5622;SDS011;2833;50.432;10.706;2023-03-03T18:23:55;13.00;;;7.87;;
5622;SDS011;2833;50.432;10.706;2023-03-03T18:26:39;12.47;;;8.23;;
5622;SDS011;2833;50.432;10.706;2023-03-03T18:29:08;16.90;;;8.97;;
5622;SDS011;2833;50.432;10.706;2023-03-03T18:36:55;32.23;;;14.73;;
5622;SDS011;2833;50.432;10.706;2023-03-03T18:44:33;10.83;;;7.63;;
5622;SDS011;2833;50.432;10.706;2023-03-03T18:46:58;45.03;;;24.27;;
5622;SDS011;2833;50.432;10.706;2023-03-03T18:52:24;13.10;;;8.47;;
5622;SDS011;2833;50.432;10.706;2023-03-03T18:55:20;12.03;;;7.30;;
5622;SDS011;2833;50.432;10.706;2023-03-03T18:57:36;12.23;;;7.43;;
5622;SDS011;2833;50.432;10.706;2023-03-03T19:00:15;11.70;;;7.23;;
5622;SDS011;2833;50.432;10.706;2023-03-03T19:02:55;14.13;;;7.87;;
5622;SDS011;2833;50.432;10.706;2023-03-03T19:05:25;10.40;;;6.60;;
5622;SDS011;2833;50.432;10.706;2023-03-03T19:13:34;8.00;;;5.17;;
5622;SDS011;2833;50.432;10.706;2023-03-03T19:15:54;13.37;;;7.00;;